Grant County, OR

2:51 PM PDT on May 29, 2017 (GMT -0700)
Grant County Regional

Weather History for KGCD - September, 2013

Change the Weather History Date:

Sunday, September 29, 2013

  Actual Average (KBNO) Record (KBNO)
Temperature  
Mean Temperature 52 °F -  
Max Temperature 61 °F 71 °F 89 °F (1992)
Min Temperature 44 °F 30 °F 21 °F (1983)
Degree Days  
Heating Degree Days 14    
Growing Degree Days 2 (Base 50)    
Moisture  
Dew Point 42 °F    
Average Humidity 84    
Maximum Humidity 95    
Minimum Humidity 45    
Precipitation  
Precipitation 0.31 in - - ()
Sea Level Pressure  
Sea Level Pressure 29.78 in    
Wind  
Wind Speed 13 mph (South)    
Max Wind Speed 23 mph    
Max Gust Speed 37 mph    
Visibility 10 miles    
Events Rain    
Averages and records for this station are not official NWS values.
T = Trace of Precipitation, MM = Missing Value Source: NWS Daily Summary

Daily Weather History Graph

Daily Weather History Graph

Search for Another Location

Airport or City:

Trip Planner

Search our weather history database for the weather conditions in past years. The results will help you decide how hot, cold, wet, or windy it might be!

Date:

Astronomy

Sep. 29, 2013 Rise Set
Actual Time 6:51 AM PDT 6:39 PM PDT
Civil Twilight 6:22 AM PDT 7:08 PM PDT
Nautical Twilight 5:48 AM PDT 7:42 PM PDT
Astronomical Twilight 5:14 AM PDT 8:16 PM PDT
Moon 1:27 AM PDT 3:47 PM PDT
Length of Visible Light 12h 45m
Length of Day
11h 47m
Waning Crescent, 26% of the Moon is Illuminated
Sep 29
Waning Crescent
Oct 4
New
Oct 11
First Quarter
Oct 18
Full
Oct 26
Last Quarter

Hourly Weather History & Observations

Time (PDT) Temp. Windchill Dew Point Humidity Pressure Visibility Wind Dir Wind Speed Gust Speed Precip Events Conditions
1:35 AM 59.7 °F - 38.1 °F 45% 29.70 in 10.0 mi WSW 23.0 mph 36.8 mph N/A Rain Light Rain
1:55 AM 59.4 °F - 38.3 °F 46% 29.71 in 10.0 mi WSW 10.4 mph 21.9 mph N/A   Overcast
2:15 AM 57.2 °F - 41.5 °F 56% 29.72 in 7.0 mi WSW 16.1 mph 24.2 mph N/A   Light Drizzle
2:35 AM 56.3 °F - 42.6 °F 60% 29.74 in 7.0 mi WSW 16.1 mph 19.6 mph N/A   Drizzle
2:55 AM 53.4 °F - 45.1 °F 74% 29.75 in 7.0 mi West 19.6 mph 24.2 mph N/A   Drizzle
3:15 AM 46.8 °F - 44.2 °F 91% 29.76 in 7.0 mi West 19.6 mph 26.5 mph N/A   Drizzle
3:35 AM 45.5 °F 38.6 °F 43.3 °F 92% 29.79 in 7.0 mi West 16.1 mph 20.7 mph N/A   Drizzle
3:55 AM 45.0 °F 38.2 °F 43.0 °F 93% 29.80 in 10.0 mi West 15.0 mph 23.0 mph 0.01 in Rain Rain
4:15 AM 44.6 °F 40.7 °F 42.8 °F 93% 29.80 in 10.0 mi WSW 6.9 mph - N/A   Light Drizzle
4:35 AM 44.6 °F 39.7 °F 42.6 °F 93% 29.82 in 10.0 mi West 9.2 mph - N/A Rain Rain
4:55 AM 44.2 °F 39.2 °F 42.8 °F 95% 29.83 in 10.0 mi WSW 9.2 mph - 0.01 in Rain Light Rain
5:15 AM 44.2 °F 39.2 °F 42.3 °F 93% 29.83 in 10.0 mi SW 9.2 mph - N/A Rain Rain
5:35 AM 44.6 °F 43.1 °F 41.9 °F 90% 29.81 in 10.0 mi ESE 3.5 mph - 0.01 in   Light Drizzle
5:55 AM 45.5 °F 43.2 °F 41.2 °F 85% 29.81 in 10.0 mi NNE 4.6 mph - 0.02 in   Light Drizzle
6:15 AM 46.0 °F 44.8 °F 39.6 °F 78% 29.80 in 10.0 mi WSW 3.5 mph - N/A   Overcast
6:35 AM 46.6 °F - 39.2 °F 75% 29.81 in 10.0 mi SSW 16.1 mph 21.9 mph N/A   Overcast
6:55 AM 46.6 °F - 38.5 °F 73% 29.81 in 10.0 mi SW 17.3 mph 27.6 mph 0.01 in   Overcast
7:15 AM 46.4 °F 39.8 °F 39.2 °F 76% 29.80 in 10.0 mi SSW 16.1 mph 19.6 mph N/A Rain Light Rain
7:35 AM 45.5 °F 38.3 °F 38.8 °F 78% 29.80 in 10.0 mi SSW 17.3 mph 27.6 mph N/A Rain Rain
7:55 AM 45.1 °F 36.6 °F 39.2 °F 80% 29.80 in 10.0 mi South 23.0 mph 28.8 mph 0.01 in Rain Rain
8:15 AM 45.5 °F 38.6 °F 39.4 °F 79% 29.81 in 10.0 mi SW 16.1 mph 28.8 mph N/A Rain Rain
8:35 AM 45.5 °F 38.6 °F 39.9 °F 81% 29.82 in 10.0 mi SW 16.1 mph 23.0 mph N/A Rain Rain
8:55 AM 44.6 °F 38.1 °F 39.7 °F 83% 29.81 in 10.0 mi SSW 13.8 mph - 0.01 in Rain Light Rain
9:15 AM 44.2 °F 38.4 °F 39.6 °F 84% 29.82 in 10.0 mi South 11.5 mph - N/A Rain Light Rain
9:35 AM 44.2 °F 36.7 °F 39.2 °F 82% 29.82 in 10.0 mi South 17.3 mph 21.9 mph 0.01 in Rain Rain
9:55 AM 44.6 °F 36.9 °F 39.6 °F 82% 29.82 in 10.0 mi SSW 18.4 mph 23.0 mph 0.01 in Rain Light Rain
10:15 AM 44.4 °F 37.9 °F 39.9 °F 84% 29.84 in 10.0 mi SSW 13.8 mph - 0.01 in Rain Light Rain
10:35 AM 44.2 °F 38.4 °F 40.3 °F 86% 29.84 in 10.0 mi SSW 11.5 mph - 0.01 in Rain Light Rain
10:55 AM 45.0 °F 39.7 °F 39.9 °F 82% 29.84 in 10.0 mi SW 10.4 mph 16.1 mph 0.02 in Rain Light Rain
11:15 AM 44.8 °F 37.7 °F 39.6 °F 82% 29.84 in 10.0 mi SW 16.1 mph - N/A Rain Light Rain
11:35 AM 45.0 °F 39.7 °F 39.2 °F 80% 29.84 in 10.0 mi South 10.4 mph 23.0 mph 0.01 in Rain Light Rain
11:55 AM 44.8 °F 38.0 °F 39.4 °F 81% 29.84 in 10.0 mi South 15.0 mph - 0.02 in Rain Light Rain
12:15 PM 44.1 °F 37.1 °F 39.4 °F 84% 29.84 in 10.0 mi South 15.0 mph - N/A Rain Light Rain
12:35 PM 44.1 °F 37.7 °F 39.2 °F 83% 29.84 in 10.0 mi South 12.7 mph - 0.01 in Rain Rain
12:55 PM 45.0 °F 38.5 °F 39.6 °F 81% 29.82 in 10.0 mi South 13.8 mph 19.6 mph 0.01 in   Drizzle
1:15 PM 45.5 °F 41.3 °F 39.9 °F 81% 29.82 in 10.0 mi SSW 8.1 mph - 0.01 in Rain Rain
1:35 PM 46.8 °F - 40.6 °F 79% 29.81 in 10.0 mi SSW 12.7 mph 23.0 mph 0.01 in   Overcast
1:55 PM 48.0 °F - 40.5 °F 75% 29.81 in 10.0 mi South 13.8 mph 23.0 mph 0.02 in   Overcast
2:15 PM 48.2 °F - 41.0 °F 76% 29.81 in 10.0 mi SSW 15.0 mph - N/A   Overcast
2:35 PM 48.2 °F - 41.0 °F 76% 29.80 in 10.0 mi SSW 12.7 mph - 0.01 in   Overcast
2:55 PM 48.2 °F - 40.8 °F 76% 29.80 in 10.0 mi South 12.7 mph 20.7 mph 0.01 in   Overcast
3:15 PM 48.2 °F - 41.5 °F 78% 29.79 in 10.0 mi South 13.8 mph 18.4 mph 0.01 in Rain Light Rain
3:35 PM 47.8 °F - 42.3 °F 81% 29.80 in 10.0 mi South 10.4 mph - 0.01 in Rain Light Rain
3:55 PM 48.2 °F - 42.1 °F 79% 29.80 in 10.0 mi South 15.0 mph - 0.02 in Rain Light Rain
4:15 PM 48.2 °F - 42.1 °F 79% 29.80 in 10.0 mi South 12.7 mph - N/A Rain Light Rain
4:35 PM 47.5 °F - 42.6 °F 83% 29.81 in 10.0 mi South 11.5 mph - 0.01 in Rain Light Rain
4:55 PM 47.3 °F - 42.6 °F 84% 29.80 in 10.0 mi South 13.8 mph - 0.01 in Rain Light Rain
5:15 PM 46.9 °F - 42.4 °F 84% 29.80 in 10.0 mi South 8.1 mph - 0.01 in Rain Light Rain
5:35 PM 47.3 °F - 42.3 °F 83% 29.79 in 10.0 mi SSE 10.4 mph - 0.01 in Rain Light Rain
5:55 PM 45.5 °F 41.3 °F 43.7 °F 93% 29.78 in 10.0 mi East 8.1 mph - 0.02 in Rain Light Rain
6:15 PM 45.5 °F 39.6 °F 43.7 °F 93% 29.77 in 10.0 mi East 12.7 mph - N/A Rain Light Rain
6:35 PM 45.5 °F 41.3 °F 43.9 °F 94% 29.76 in 10.0 mi East 8.1 mph - 0.01 in Rain Light Rain
6:55 PM 45.5 °F 40.8 °F 43.9 °F 94% 29.76 in 10.0 mi ESE 9.2 mph - 0.01 in Rain Light Rain
7:15 PM 45.5 °F 40.8 °F 44.1 °F 95% 29.75 in 10.0 mi East 9.2 mph - 0.01 in Rain Light Rain
7:35 PM 45.5 °F 41.3 °F 44.1 °F 95% 29.75 in 10.0 mi East 8.1 mph - 0.01 in Rain Light Rain
7:55 PM 45.5 °F 42.5 °F 43.7 °F 93% 29.75 in 10.0 mi ESE 5.8 mph - 0.02 in Rain Light Rain
8:15 PM 45.7 °F 43.4 °F 43.7 °F 93% 29.75 in 10.0 mi East 4.6 mph - N/A Rain Rain
8:35 PM 46.0 °F - 43.9 °F 92% 29.75 in 10.0 mi Calm Calm - 0.01 in Rain Rain
8:55 PM 45.7 °F 43.4 °F 44.1 °F 94% 29.74 in 7.0 mi ESE 4.6 mph - 0.02 in Rain Light Rain
9:15 PM 45.9 °F 42.3 °F 44.4 °F 95% 29.73 in 7.0 mi ENE 6.9 mph - N/A Rain Light Rain
9:35 PM 46.8 °F - 44.8 °F 93% 29.72 in 10.0 mi East 8.1 mph - 0.01 in Rain Light Rain
9:55 PM 46.8 °F - 45.1 °F 94% 29.71 in 10.0 mi East 6.9 mph - 0.01 in Rain Rain
10:15 PM 46.6 °F - 45.0 °F 94% 29.70 in 10.0 mi East 6.9 mph - 0.01 in Rain Light Rain
10:35 PM 46.8 °F - 45.1 °F 94% 29.70 in 10.0 mi ESE 6.9 mph - 0.01 in Rain Light Rain
10:55 PM 47.3 °F - 45.5 °F 93% 29.70 in 10.0 mi East 4.6 mph - 0.02 in Rain Rain
11:15 PM 47.3 °F - 45.5 °F 93% 29.67 in 10.0 mi East 6.9 mph - 0.01 in Rain Light Rain
11:35 PM 48.4 °F - 46.2 °F 92% 29.65 in 10.0 mi ENE 6.9 mph - 0.01 in   Drizzle
11:55 PM 53.4 °F - 47.8 °F 81% 29.62 in 10.0 mi East 5.8 mph 21.9 mph 0.02 in   Drizzle